sensor_id;sensor_type;location;lat;lon;timestamp;temperature;humidity
79016;DHT22;68420;44.714;37.756;2023-04-01T00:00:34;23.78;38.42
79016;DHT22;68420;44.714;37.756;2023-04-01T00:01:36;23.75;38.43
79016;DHT22;68420;44.714;37.756;2023-04-01T00:02:37;23.72;38.44
79016;DHT22;68420;44.714;37.756;2023-04-01T00:03:39;23.77;38.40
79016;DHT22;68420;44.714;37.756;2023-04-01T00:04:40;23.75;38.35
79016;DHT22;68420;44.714;37.756;2023-04-01T00:05:42;23.75;38.40
79016;DHT22;68420;44.714;37.756;2023-04-01T00:06:43;23.77;38.39
79016;DHT22;68420;44.714;37.756;2023-04-01T00:07:45;23.77;38.42
79016;DHT22;68420;44.714;37.756;2023-04-01T00:08:47;23.77;38.40
79016;DHT22;68420;44.714;37.756;2023-04-01T00:09:49;23.77;38.33
79016;DHT22;68420;44.714;37.756;2023-04-01T00:10:50;23.78;38.37
79016;DHT22;68420;44.714;37.756;2023-04-01T00:11:52;23.75;38.35
79016;DHT22;68420;44.714;37.756;2023-04-01T00:12:53;23.75;38.35
79016;DHT22;68420;44.714;37.756;2023-04-01T00:13:55;23.75;38.35
79016;DHT22;68420;44.714;37.756;2023-04-01T00:14:56;23.77;38.38
79016;DHT22;68420;44.714;37.756;2023-04-01T00:15:58;23.77;38.35
79016;DHT22;68420;44.714;37.756;2023-04-01T00:16:59;23.75;38.27
79016;DHT22;68420;44.714;37.756;2023-04-01T00:18:01;23.77;38.31
79016;DHT22;68420;44.714;37.756;2023-04-01T00:19:03;23.78;38.35
79016;DHT22;68420;44.714;37.756;2023-04-01T00:20:06;23.77;38.34
79016;DHT22;68420;44.714;37.756;2023-04-01T00:21:09;23.74;38.35
79016;DHT22;68420;44.714;37.756;2023-04-01T00:22:10;23.77;38.30
79016;DHT22;68420;44.714;37.756;2023-04-01T00:23:13;23.78;38.34
79016;DHT22;68420;44.714;37.756;2023-04-01T00:24:14;23.75;38.36
79016;DHT22;68420;44.714;37.756;2023-04-01T00:25:16;23.75;38.33
79016;DHT22;68420;44.714;37.756;2023-04-01T00:26:19;23.74;38.33
79016;DHT22;68420;44.714;37.756;2023-04-01T00:27:22;23.77;38.21
79016;DHT22;68420;44.714;37.756;2023-04-01T00:28:23;23.77;38.28
79016;DHT22;68420;44.714;37.756;2023-04-01T00:29:25;23.78;38.29
79016;DHT22;68420;44.714;37.756;2023-04-01T00:30:30;23.78;38.28
79016;DHT22;68420;44.714;37.756;2023-04-01T00:31:31;23.79;38.25
79016;DHT22;68420;44.714;37.756;2023-04-01T00:32:33;23.77;38.21
79016;DHT22;68420;44.714;37.756;2023-04-01T00:33:35;23.75;38.21
79016;DHT22;68420;44.714;37.756;2023-04-01T00:34:38;23.79;38.18
79016;DHT22;68420;44.714;37.756;2023-04-01T00:35:41;23.78;38.25
79016;DHT22;68420;44.714;37.756;2023-04-01T00:36:43;23.77;38.25
79016;DHT22;68420;44.714;37.756;2023-04-01T00:37:44;23.75;38.31
79016;DHT22;68420;44.714;37.756;2023-04-01T00:38:47;23.75;38.29
79016;DHT22;68420;44.714;37.756;2023-04-01T00:39:48;23.77;38.34
79016;DHT22;68420;44.714;37.756;2023-04-01T00:40:57;23.77;38.29
79016;DHT22;68420;44.714;37.756;2023-04-01T00:41:59;23.74;38.34
79016;DHT22;68420;44.714;37.756;2023-04-01T00:43:02;23.74;38.30
79016;DHT22;68420;44.714;37.756;2023-04-01T00:44:22;23.74;38.33
79016;DHT22;68420;44.714;37.756;2023-04-01T00:46:30;23.74;38.34
79016;DHT22;68420;44.714;37.756;2023-04-01T00:47:32;23.71;38.35
79016;DHT22;68420;44.714;37.756;2023-04-01T00:48:35;23.74;38.32
79016;DHT22;68420;44.714;37.756;2023-04-01T00:49:40;23.72;38.25
79016;DHT22;68420;44.714;37.756;2023-04-01T00:50:57;23.71;38.23
79016;DHT22;68420;44.714;37.756;2023-04-01T00:52:02;23.72;38.22
79016;DHT22;68420;44.714;37.756;2023-04-01T00:53:05;23.72;38.22
79016;DHT22;68420;44.714;37.756;2023-04-01T00:54:09;23.71;38.28
79016;DHT22;68420;44.714;37.756;2023-04-01T00:55:12;23.72;38.34
79016;DHT22;68420;44.714;37.756;2023-04-01T00:56:27;23.72;38.31
79016;DHT22;68420;44.714;37.756;2023-04-01T00:57:35;23.71;38.36
79016;DHT22;68420;44.714;37.756;2023-04-01T00:58:41;23.75;38.24
79016;DHT22;68420;44.714;37.756;2023-04-01T00:59:46;23.75;38.22
79016;DHT22;68420;44.714;37.756;2023-04-01T01:00:49;23.72;38.22
79016;DHT22;68420;44.714;37.756;2023-04-01T01:01:52;23.74;38.27
79016;DHT22;68420;44.714;37.756;2023-04-01T01:02:53;23.74;38.26
79016;DHT22;68420;44.714;37.756;2023-04-01T01:03:55;23.72;38.19
79016;DHT22;68420;44.714;37.756;2023-04-01T01:04:56;23.74;38.23
79016;DHT22;68420;44.714;37.756;2023-04-01T01:09:23;23.68;38.36
79016;DHT22;68420;44.714;37.756;2023-04-01T01:10:31;23.65;38.41
79016;DHT22;68420;44.714;37.756;2023-04-01T01:14:20;23.61;38.45
79016;DHT22;68420;44.714;37.756;2023-04-01T01:16:30;23.61;38.46
79016;DHT22;68420;44.714;37.756;2023-04-01T01:18:53;23.61;38.49
79016;DHT22;68420;44.714;37.756;2023-04-01T01:25:44;23.54;38.52
79016;DHT22;68420;44.714;37.756;2023-04-01T01:27:09;23.58;38.51
79016;DHT22;68420;44.714;37.756;2023-04-01T01:28:50;23.58;38.55
79016;DHT22;68420;44.714;37.756;2023-04-01T01:30:01;23.54;38.56
79016;DHT22;68420;44.714;37.756;2023-04-01T01:31:22;23.55;38.54
79016;DHT22;68420;44.714;37.756;2023-04-01T01:36:09;23.49;38.68
79016;DHT22;68420;44.714;37.756;2023-04-01T01:37:15;23.47;38.72
79016;DHT22;68420;44.714;37.756;2023-04-01T01:38:21;23.47;38.67
79016;DHT22;68420;44.714;37.756;2023-04-01T01:39:58;23.47;38.61
79016;DHT22;68420;44.714;37.756;2023-04-01T01:41:04;23.43;38.77
79016;DHT22;68420;44.714;37.756;2023-04-01T01:42:09;23.49;38.76
79016;DHT22;68420;44.714;37.756;2023-04-01T01:43:15;23.46;38.66
79016;DHT22;68420;44.714;37.756;2023-04-01T01:44:19;23.50;38.65
79016;DHT22;68420;44.714;37.756;2023-04-01T01:45:23;23.50;38.67
79016;DHT22;68420;44.714;37.756;2023-04-01T01:46:27;23.53;38.56
79016;DHT22;68420;44.714;37.756;2023-04-01T01:47:30;23.54;38.54
79016;DHT22;68420;44.714;37.756;2023-04-01T01:48:33;23.53;38.56
79016;DHT22;68420;44.714;37.756;2023-04-01T01:49:35;23.55;38.50
79016;DHT22;68420;44.714;37.756;2023-04-01T01:50:38;23.57;38.45
79016;DHT22;68420;44.714;37.756;2023-04-01T01:51:41;23.60;38.46
79016;DHT22;68420;44.714;37.756;2023-04-01T01:52:46;23.55;38.49
79016;DHT22;68420;44.714;37.756;2023-04-01T01:53:48;23.55;38.42
79016;DHT22;68420;44.714;37.756;2023-04-01T01:54:53;23.57;38.43
79016;DHT22;68420;44.714;37.756;2023-04-01T01:55:57;23.57;38.42
79016;DHT22;68420;44.714;37.756;2023-04-01T01:57:07;23.60;38.39
79016;DHT22;68420;44.714;37.756;2023-04-01T01:58:19;23.58;38.36
79016;DHT22;68420;44.714;37.756;2023-04-01T01:59:24;23.60;38.35
79016;DHT22;68420;44.714;37.756;2023-04-01T02:00:28;23.60;38.41
79016;DHT22;68420;44.714;37.756;2023-04-01T02:01:31;23.60;38.38
79016;DHT22;68420;44.714;37.756;2023-04-01T02:02:44;23.61;38.36
79016;DHT22;68420;44.714;37.756;2023-04-01T02:03:47;23.64;38.43
79016;DHT22;68420;44.714;37.756;2023-04-01T02:04:49;23.62;38.33
79016;DHT22;68420;44.714;37.756;2023-04-01T02:05:53;23.65;38.33
79016;DHT22;68420;44.714;37.756;2023-04-01T02:07:00;23.64;38.30
79016;DHT22;68420;44.714;37.756;2023-04-01T02:08:16;23.61;38.42
79016;DHT22;68420;44.714;37.756;2023-04-01T02:09:19;23.62;38.29
79016;DHT22;68420;44.714;37.756;2023-04-01T02:10:22;23.64;38.27
79016;DHT22;68420;44.714;37.756;2023-04-01T02:11:34;23.62;38.31
79016;DHT22;68420;44.714;37.756;2023-04-01T02:12:38;23.64;38.30
79016;DHT22;68420;44.714;37.756;2023-04-01T02:14:58;23.60;38.31
79016;DHT22;68420;44.714;37.756;2023-04-01T02:16:06;23.61;38.43
79016;DHT22;68420;44.714;37.756;2023-04-01T02:17:15;23.61;38.40
79016;DHT22;68420;44.714;37.756;2023-04-01T02:18:18;23.61;38.36
79016;DHT22;68420;44.714;37.756;2023-04-01T02:19:22;23.62;38.41
79016;DHT22;68420;44.714;37.756;2023-04-01T02:20:28;23.64;38.31
79016;DHT22;68420;44.714;37.756;2023-04-01T02:21:32;23.61;38.31
79016;DHT22;68420;44.714;37.756;2023-04-01T02:22:36;23.64;38.33
79016;DHT22;68420;44.714;37.756;2023-04-01T02:23:38;23.60;38.32
79016;DHT22;68420;44.714;37.756;2023-04-01T02:24:40;23.61;38.25
79016;DHT22;68420;44.714;37.756;2023-04-01T02:25:43;23.67;38.30
79016;DHT22;68420;44.714;37.756;2023-04-01T02:26:46;23.64;38.34
79016;DHT22;68420;44.714;37.756;2023-04-01T02:27:47;23.67;38.24
79016;DHT22;68420;44.714;37.756;2023-04-01T02:28:50;23.67;38.16
79016;DHT22;68420;44.714;37.756;2023-04-01T02:29:53;23.65;38.20
79016;DHT22;68420;44.714;37.756;2023-04-01T02:30:54;23.65;38.22
79016;DHT22;68420;44.714;37.756;2023-04-01T02:31:56;23.68;38.19
79016;DHT22;68420;44.714;37.756;2023-04-01T02:32:59;23.65;38.23
79016;DHT22;68420;44.714;37.756;2023-04-01T02:34:02;23.65;38.20
79016;DHT22;68420;44.714;37.756;2023-04-01T02:35:09;23.67;38.24
79016;DHT22;68420;44.714;37.756;2023-04-01T02:36:15;23.67;38.24
79016;DHT22;68420;44.714;37.756;2023-04-01T02:37:17;23.64;38.24
79016;DHT22;68420;44.714;37.756;2023-04-01T02:38:18;23.67;38.16
79016;DHT22;68420;44.714;37.756;2023-04-01T02:39:20;23.68;38.21
79016;DHT22;68420;44.714;37.756;2023-04-01T02:40:22;23.68;38.14
79016;DHT22;68420;44.714;37.756;2023-04-01T02:41:26;23.70;38.19
79016;DHT22;68420;44.714;37.756;2023-04-01T02:42:27;23.68;38.13
79016;DHT22;68420;44.714;37.756;2023-04-01T02:43:28;23.68;38.18
79016;DHT22;68420;44.714;37.756;2023-04-01T02:44:31;23.70;38.14
79016;DHT22;68420;44.714;37.756;2023-04-01T02:45:33;23.70;38.10
79016;DHT22;68420;44.714;37.756;2023-04-01T02:46:35;23.68;38.10
79016;DHT22;68420;44.714;37.756;2023-04-01T02:47:36;23.70;38.11
79016;DHT22;68420;44.714;37.756;2023-04-01T02:48:38;23.67;38.23
79016;DHT22;68420;44.714;37.756;2023-04-01T02:49:39;23.71;38.24
79016;DHT22;68420;44.714;37.756;2023-04-01T02:50:41;23.68;38.26
79016;DHT22;68420;44.714;37.756;2023-04-01T02:51:42;23.68;38.28
79016;DHT22;68420;44.714;37.756;2023-04-01T02:52:44;23.68;38.23
79016;DHT22;68420;44.714;37.756;2023-04-01T02:53:46;23.70;38.18
79016;DHT22;68420;44.714;37.756;2023-04-01T02:54:47;23.68;38.06
79016;DHT22;68420;44.714;37.756;2023-04-01T02:55:48;23.71;38.11
79016;DHT22;68420;44.714;37.756;2023-04-01T02:56:52;23.72;38.07
79016;DHT22;68420;44.714;37.756;2023-04-01T02:57:54;23.68;37.97
79016;DHT22;68420;44.714;37.756;2023-04-01T02:58:56;23.68;38.00
79016;DHT22;68420;44.714;37.756;2023-04-01T02:59:57;23.71;38.12
79016;DHT22;68420;44.714;37.756;2023-04-01T03:00:58;23.71;38.00
79016;DHT22;68420;44.714;37.756;2023-04-01T03:02:00;23.71;38.02
79016;DHT22;68420;44.714;37.756;2023-04-01T03:03:01;23.71;38.02
79016;DHT22;68420;44.714;37.756;2023-04-01T03:04:04;23.71;37.79
79016;DHT22;68420;44.714;37.756;2023-04-01T03:05:06;23.72;37.94
79016;DHT22;68420;44.714;37.756;2023-04-01T03:06:09;23.72;37.83
79016;DHT22;68420;44.714;37.756;2023-04-01T03:07:11;23.72;37.78
79016;DHT22;68420;44.714;37.756;2023-04-01T03:08:13;23.75;37.77
79016;DHT22;68420;44.714;37.756;2023-04-01T03:09:14;23.77;37.80
79016;DHT22;68420;44.714;37.756;2023-04-01T03:10:16;23.75;37.84
79016;DHT22;68420;44.714;37.756;2023-04-01T03:11:18;23.75;37.84
79016;DHT22;68420;44.714;37.756;2023-04-01T03:12:19;23.75;37.77
79016;DHT22;68420;44.714;37.756;2023-04-01T03:13:24;23.75;37.84
79016;DHT22;68420;44.714;37.756;2023-04-01T03:14:26;23.77;37.93
79016;DHT22;68420;44.714;37.756;2023-04-01T03:15:28;23.71;37.78
79016;DHT22;68420;44.714;37.756;2023-04-01T03:16:33;23.74;37.98
79016;DHT22;68420;44.714;37.756;2023-04-01T03:17:34;23.74;37.76
79016;DHT22;68420;44.714;37.756;2023-04-01T03:18:35;23.71;37.79
79016;DHT22;68420;44.714;37.756;2023-04-01T03:19:37;23.75;37.68
79016;DHT22;68420;44.714;37.756;2023-04-01T03:20:42;23.74;37.68
79016;DHT22;68420;44.714;37.756;2023-04-01T03:21:43;23.74;37.78
79016;DHT22;68420;44.714;37.756;2023-04-01T03:22:44;23.75;37.75
79016;DHT22;68420;44.714;37.756;2023-04-01T03:23:47;23.74;37.72
79016;DHT22;68420;44.714;37.756;2023-04-01T03:24:48;23.72;37.63
79016;DHT22;68420;44.714;37.756;2023-04-01T03:25:49;23.74;37.62
79016;DHT22;68420;44.714;37.756;2023-04-01T03:26:51;23.74;37.66
79016;DHT22;68420;44.714;37.756;2023-04-01T03:27:53;23.75;37.77
79016;DHT22;68420;44.714;37.756;2023-04-01T03:28:55;23.72;37.80
79016;DHT22;68420;44.714;37.756;2023-04-01T03:29:57;23.72;37.82
79016;DHT22;68420;44.714;37.756;2023-04-01T03:30:58;23.72;37.67
79016;DHT22;68420;44.714;37.756;2023-04-01T03:32:00;23.72;37.70
79016;DHT22;68420;44.714;37.756;2023-04-01T03:33:02;23.74;37.72
79016;DHT22;68420;44.714;37.756;2023-04-01T03:34:05;23.70;37.63
79016;DHT22;68420;44.714;37.756;2023-04-01T03:35:07;23.72;37.77
79016;DHT22;68420;44.714;37.756;2023-04-01T03:36:10;23.72;38.20
79016;DHT22;68420;44.714;37.756;2023-04-01T03:37:13;23.71;38.19
79016;DHT22;68420;44.714;37.756;2023-04-01T03:38:15;23.70;38.27
79016;DHT22;68420;44.714;37.756;2023-04-01T03:39:17;23.68;38.12
79016;DHT22;68420;44.714;37.756;2023-04-01T03:40:20;23.67;38.14
79016;DHT22;68420;44.714;37.756;2023-04-01T03:41:22;23.68;38.69
79016;DHT22;68420;44.714;37.756;2023-04-01T03:42:23;23.64;38.59
79016;DHT22;68420;44.714;37.756;2023-04-01T03:43:25;23.62;39.10
79016;DHT22;68420;44.714;37.756;2023-04-01T03:44:31;23.64;38.87
79016;DHT22;68420;44.714;37.756;2023-04-01T03:45:33;23.68;39.03
79016;DHT22;68420;44.714;37.756;2023-04-01T03:46:34;23.62;39.19
79016;DHT22;68420;44.714;37.756;2023-04-01T03:47:43;23.65;38.71
79016;DHT22;68420;44.714;37.756;2023-04-01T03:48:44;23.64;38.51
79016;DHT22;68420;44.714;37.756;2023-04-01T03:49:46;23.64;38.51
79016;DHT22;68420;44.714;37.756;2023-04-01T03:50:47;23.65;38.39
79016;DHT22;68420;44.714;37.756;2023-04-01T03:51:49;23.65;38.34
79016;DHT22;68420;44.714;37.756;2023-04-01T03:52:50;23.67;38.16
79016;DHT22;68420;44.714;37.756;2023-04-01T03:53:52;23.68;38.25
79016;DHT22;68420;44.714;37.756;2023-04-01T03:54:53;23.70;38.39
79016;DHT22;68420;44.714;37.756;2023-04-01T03:55:58;23.68;38.07
79016;DHT22;68420;44.714;37.756;2023-04-01T03:57:00;23.70;38.06
79016;DHT22;68420;44.714;37.756;2023-04-01T03:58:01;23.68;38.14
79016;DHT22;68420;44.714;37.756;2023-04-01T03:59:05;23.70;37.95
79016;DHT22;68420;44.714;37.756;2023-04-01T04:00:07;23.70;38.07
79016;DHT22;68420;44.714;37.756;2023-04-01T04:01:17;23.68;38.05
79016;DHT22;68420;44.714;37.756;2023-04-01T04:02:19;23.72;38.00
79016;DHT22;68420;44.714;37.756;2023-04-01T04:03:20;23.71;37.99
79016;DHT22;68420;44.714;37.756;2023-04-01T04:04:22;23.74;37.99
79016;DHT22;68420;44.714;37.756;2023-04-01T04:05:24;23.71;37.97
79016;DHT22;68420;44.714;37.756;2023-04-01T04:06:26;23.74;37.91
79016;DHT22;68420;44.714;37.756;2023-04-01T04:07:27;23.74;37.99
79016;DHT22;68420;44.714;37.756;2023-04-01T04:08:36;23.75;37.94
79016;DHT22;68420;44.714;37.756;2023-04-01T04:09:37;23.74;37.89
79016;DHT22;68420;44.714;37.756;2023-04-01T04:10:39;23.75;37.89
79016;DHT22;68420;44.714;37.756;2023-04-01T04:11:40;23.75;37.85
79016;DHT22;68420;44.714;37.756;2023-04-01T04:12:42;23.74;37.96
79016;DHT22;68420;44.714;37.756;2023-04-01T04:13:44;23.74;38.12
79016;DHT22;68420;44.714;37.756;2023-04-01T04:14:46;23.74;38.19
79016;DHT22;68420;44.714;37.756;2023-04-01T04:15:47;23.72;38.07
79016;DHT22;68420;44.714;37.756;2023-04-01T04:16:49;23.71;38.40
79016;DHT22;68420;44.714;37.756;2023-04-01T04:17:50;23.68;38.58
79016;DHT22;68420;44.714;37.756;2023-04-01T04:18:52;23.68;38.69
79016;DHT22;68420;44.714;37.756;2023-04-01T04:19:53;23.68;38.69
79016;DHT22;68420;44.714;37.756;2023-04-01T04:20:56;23.67;38.82
79016;DHT22;68420;44.714;37.756;2023-04-01T04:21:57;23.64;38.71
79016;DHT22;68420;44.714;37.756;2023-04-01T04:23:03;23.64;39.01
79016;DHT22;68420;44.714;37.756;2023-04-01T04:24:04;23.62;38.84
79016;DHT22;68420;44.714;37.756;2023-04-01T04:25:32;23.62;38.90
79016;DHT22;68420;44.714;37.756;2023-04-01T04:26:33;23.61;39.03
79016;DHT22;68420;44.714;37.756;2023-04-01T04:27:35;23.60;39.04
79016;DHT22;68420;44.714;37.756;2023-04-01T04:28:41;23.60;39.14
79016;DHT22;68420;44.714;37.756;2023-04-01T04:29:43;23.60;39.18
79016;DHT22;68420;44.714;37.756;2023-04-01T04:30:44;23.58;39.14
79016;DHT22;68420;44.714;37.756;2023-04-01T04:31:46;23.58;39.17
79016;DHT22;68420;44.714;37.756;2023-04-01T04:32:47;23.58;39.19
79016;DHT22;68420;44.714;37.756;2023-04-01T04:33:49;23.60;39.16
79016;DHT22;68420;44.714;37.756;2023-04-01T04:34:51;23.60;38.89
79016;DHT22;68420;44.714;37.756;2023-04-01T04:35:55;23.60;39.00
79016;DHT22;68420;44.714;37.756;2023-04-01T04:36:58;23.58;39.08
79016;DHT22;68420;44.714;37.756;2023-04-01T04:38:05;23.61;39.12
79016;DHT22;68420;44.714;37.756;2023-04-01T04:39:07;23.62;39.09
79016;DHT22;68420;44.714;37.756;2023-04-01T04:40:11;23.60;39.11
79016;DHT22;68420;44.714;37.756;2023-04-01T04:41:17;23.62;39.12
79016;DHT22;68420;44.714;37.756;2023-04-01T04:42:23;23.60;38.98
79016;DHT22;68420;44.714;37.756;2023-04-01T04:43:29;23.60;39.07
79016;DHT22;68420;44.714;37.756;2023-04-01T04:44:31;23.62;39.08
79016;DHT22;68420;44.714;37.756;2023-04-01T04:45:34;23.60;39.10
79016;DHT22;68420;44.714;37.756;2023-04-01T04:46:36;23.62;39.00
79016;DHT22;68420;44.714;37.756;2023-04-01T04:47:46;23.62;39.10
79016;DHT22;68420;44.714;37.756;2023-04-01T04:48:51;23.61;39.05
79016;DHT22;68420;44.714;37.756;2023-04-01T04:49:52;23.62;39.10
79016;DHT22;68420;44.714;37.756;2023-04-01T04:51:11;23.62;38.97
79016;DHT22;68420;44.714;37.756;2023-04-01T04:52:13;23.60;39.17
79016;DHT22;68420;44.714;37.756;2023-04-01T04:53:16;23.61;39.21
79016;DHT22;68420;44.714;37.756;2023-04-01T04:54:18;23.60;39.15
79016;DHT22;68420;44.714;37.756;2023-04-01T04:55:29;23.61;39.04
79016;DHT22;68420;44.714;37.756;2023-04-01T04:56:53;23.57;39.19
79016;DHT22;68420;44.714;37.756;2023-04-01T04:57:58;23.58;39.04
79016;DHT22;68420;44.714;37.756;2023-04-01T04:59:00;23.57;39.21
79016;DHT22;68420;44.714;37.756;2023-04-01T05:00:13;23.55;39.14
79016;DHT22;68420;44.714;37.756;2023-04-01T05:01:24;23.54;39.23
79016;DHT22;68420;44.714;37.756;2023-04-01T05:02:26;23.57;39.22
79016;DHT22;68420;44.714;37.756;2023-04-01T05:03:27;23.55;39.30
79016;DHT22;68420;44.714;37.756;2023-04-01T05:04:29;23.58;39.18
79016;DHT22;68420;44.714;37.756;2023-04-01T05:05:31;23.58;39.22
79016;DHT22;68420;44.714;37.756;2023-04-01T05:06:33;23.57;39.17
79016;DHT22;68420;44.714;37.756;2023-04-01T05:07:34;23.58;39.12
79016;DHT22;68420;44.714;37.756;2023-04-01T05:08:36;23.60;39.08
79016;DHT22;68420;44.714;37.756;2023-04-01T05:09:39;23.58;39.10
79016;DHT22;68420;44.714;37.756;2023-04-01T05:10:41;23.60;39.02
79016;DHT22;68420;44.714;37.756;2023-04-01T05:11:43;23.61;39.11
79016;DHT22;68420;44.714;37.756;2023-04-01T05:12:44;23.61;39.04
79016;DHT22;68420;44.714;37.756;2023-04-01T05:13:52;23.62;39.00
79016;DHT22;68420;44.714;37.756;2023-04-01T05:14:53;23.60;38.94
79016;DHT22;68420;44.714;37.756;2023-04-01T05:15:55;23.62;38.93
79016;DHT22;68420;44.714;37.756;2023-04-01T05:16:57;23.61;38.54
79016;DHT22;68420;44.714;37.756;2023-04-01T05:17:59;23.65;38.76
79016;DHT22;68420;44.714;37.756;2023-04-01T05:19:00;23.64;39.11
79016;DHT22;68420;44.714;37.756;2023-04-01T05:20:05;23.62;39.11
79016;DHT22;68420;44.714;37.756;2023-04-01T05:21:14;23.61;39.15
79016;DHT22;68420;44.714;37.756;2023-04-01T05:22:22;23.61;39.20
79016;DHT22;68420;44.714;37.756;2023-04-01T05:23:32;23.58;39.24
79016;DHT22;68420;44.714;37.756;2023-04-01T05:24:34;23.58;39.21
79016;DHT22;68420;44.714;37.756;2023-04-01T05:25:37;23.55;39.31
79016;DHT22;68420;44.714;37.756;2023-04-01T05:26:39;23.55;39.32
79016;DHT22;68420;44.714;37.756;2023-04-01T05:27:44;23.55;39.38
79016;DHT22;68420;44.714;37.756;2023-04-01T05:28:46;23.51;39.35
79016;DHT22;68420;44.714;37.756;2023-04-01T05:29:47;23.51;39.42
79016;DHT22;68420;44.714;37.756;2023-04-01T05:31:09;23.49;39.41
79016;DHT22;68420;44.714;37.756;2023-04-01T05:32:15;23.50;39.42
79016;DHT22;68420;44.714;37.756;2023-04-01T05:33:17;23.51;39.40
79016;DHT22;68420;44.714;37.756;2023-04-01T05:34:18;23.51;39.15
79016;DHT22;68420;44.714;37.756;2023-04-01T05:35:20;23.53;39.25
79016;DHT22;68420;44.714;37.756;2023-04-01T05:36:21;23.53;39.33
79016;DHT22;68420;44.714;37.756;2023-04-01T05:37:23;23.55;39.45
79016;DHT22;68420;44.714;37.756;2023-04-01T05:38:25;23.55;39.21
79016;DHT22;68420;44.714;37.756;2023-04-01T05:39:26;23.58;39.26
79016;DHT22;68420;44.714;37.756;2023-04-01T05:40:29;23.57;39.17
79016;DHT22;68420;44.714;37.756;2023-04-01T05:41:31;23.60;39.30
79016;DHT22;68420;44.714;37.756;2023-04-01T05:42:33;23.60;39.08
79016;DHT22;68420;44.714;37.756;2023-04-01T05:43:38;23.61;39.21
79016;DHT22;68420;44.714;37.756;2023-04-01T05:44:59;23.61;39.11
79016;DHT22;68420;44.714;37.756;2023-04-01T05:46:20;23.58;39.25
79016;DHT22;68420;44.714;37.756;2023-04-01T05:47:30;23.57;39.16
79016;DHT22;68420;44.714;37.756;2023-04-01T05:48:35;23.55;39.05
79016;DHT22;68420;44.714;37.756;2023-04-01T05:49:36;23.57;39.17
79016;DHT22;68420;44.714;37.756;2023-04-01T05:50:40;23.53;39.28
79016;DHT22;68420;44.714;37.756;2023-04-01T05:51:43;23.54;39.45
79016;DHT22;68420;44.714;37.756;2023-04-01T05:52:45;23.50;39.55
79016;DHT22;68420;44.714;37.756;2023-04-01T05:53:54;23.51;39.55
79016;DHT22;68420;44.714;37.756;2023-04-01T05:54:55;23.53;39.72
79016;DHT22;68420;44.714;37.756;2023-04-01T05:56:01;23.49;39.72
79016;DHT22;68420;44.714;37.756;2023-04-01T05:57:03;23.50;39.92
79016;DHT22;68420;44.714;37.756;2023-04-01T05:58:05;23.50;40.03
79016;DHT22;68420;44.714;37.756;2023-04-01T05:59:10;23.50;40.10
79016;DHT22;68420;44.714;37.756;2023-04-01T06:00:12;23.47;40.17
79016;DHT22;68420;44.714;37.756;2023-04-01T06:01:15;23.50;40.30
79016;DHT22;68420;44.714;37.756;2023-04-01T06:02:18;23.51;40.31
79016;DHT22;68420;44.714;37.756;2023-04-01T06:03:19;23.51;40.39
79016;DHT22;68420;44.714;37.756;2023-04-01T06:04:21;23.53;40.20
79016;DHT22;68420;44.714;37.756;2023-04-01T06:05:25;23.53;40.28
79016;DHT22;68420;44.714;37.756;2023-04-01T06:06:29;23.51;40.14
79016;DHT22;68420;44.714;37.756;2023-04-01T06:07:39;23.54;40.09
79016;DHT22;68420;44.714;37.756;2023-04-01T06:08:42;23.54;40.13
79016;DHT22;68420;44.714;37.756;2023-04-01T06:09:45;23.58;40.00
79016;DHT22;68420;44.714;37.756;2023-04-01T06:15:20;23.55;40.17
79016;DHT22;68420;44.714;37.756;2023-04-01T06:17:37;23.51;40.09
79016;DHT22;68420;44.714;37.756;2023-04-01T06:24:41;23.49;40.14
79016;DHT22;68420;44.714;37.756;2023-04-01T06:32:44;23.44;40.25
79016;DHT22;68420;44.714;37.756;2023-04-01T06:34:02;23.46;40.25
79016;DHT22;68420;44.714;37.756;2023-04-01T06:41:01;23.43;40.21
79016;DHT22;68420;44.714;37.756;2023-04-01T06:51:07;23.40;40.14
79016;DHT22;68420;44.714;37.756;2023-04-01T06:52:48;23.43;40.11
79016;DHT22;68420;44.714;37.756;2023-04-01T06:54:17;23.37;40.18
79016;DHT22;68420;44.714;37.756;2023-04-01T06:55:43;23.37;40.14
79016;DHT22;68420;44.714;37.756;2023-04-01T06:56:51;23.37;40.14
79016;DHT22;68420;44.714;37.756;2023-04-01T06:57:59;23.40;40.11
79016;DHT22;68420;44.714;37.756;2023-04-01T06:59:20;23.37;40.13
79016;DHT22;68420;44.714;37.756;2023-04-01T07:00:34;23.39;40.07
79016;DHT22;68420;44.714;37.756;2023-04-01T07:01:51;23.46;39.98
79016;DHT22;68420;44.714;37.756;2023-04-01T07:04:23;23.41;39.95
79016;DHT22;68420;44.714;37.756;2023-04-01T07:05:30;23.43;39.90
79016;DHT22;68420;44.714;37.756;2023-04-01T07:06:55;23.47;39.96
79016;DHT22;68420;44.714;37.756;2023-04-01T07:08:02;23.44;39.86
79016;DHT22;68420;44.714;37.756;2023-04-01T07:09:11;23.41;39.77
79016;DHT22;68420;44.714;37.756;2023-04-01T07:10:43;23.44;39.95
79016;DHT22;68420;44.714;37.756;2023-04-01T07:11:50;23.41;39.94
79016;DHT22;68420;44.714;37.756;2023-04-01T07:13:32;23.43;40.03
79016;DHT22;68420;44.714;37.756;2023-04-01T07:14:41;23.37;40.24
79016;DHT22;68420;44.714;37.756;2023-04-01T07:15:50;23.34;40.45
79016;DHT22;68420;44.714;37.756;2023-04-01T07:16:59;23.36;40.59
79016;DHT22;68420;44.714;37.756;2023-04-01T07:18:06;23.33;40.59
79016;DHT22;68420;44.714;37.756;2023-04-01T07:19:31;23.36;40.66
79016;DHT22;68420;44.714;37.756;2023-04-01T07:20:48;23.34;40.71
79016;DHT22;68420;44.714;37.756;2023-04-01T07:22:09;23.36;40.67
79016;DHT22;68420;44.714;37.756;2023-04-01T07:23:38;23.37;40.69
79016;DHT22;68420;44.714;37.756;2023-04-01T07:24:59;23.36;40.71
79016;DHT22;68420;44.714;37.756;2023-04-01T07:26:22;23.31;40.73
79016;DHT22;68420;44.714;37.756;2023-04-01T07:27:36;23.33;40.71
79016;DHT22;68420;44.714;37.756;2023-04-01T07:28:37;23.33;40.71
79016;DHT22;68420;44.714;37.756;2023-04-01T07:30:01;23.31;40.71
79016;DHT22;68420;44.714;37.756;2023-04-01T07:34:28;23.31;40.76
79016;DHT22;68420;44.714;37.756;2023-04-01T07:35:56;23.33;40.66
79016;DHT22;68420;44.714;37.756;2023-04-01T07:53:44;23.26;40.47
79016;DHT22;68420;44.714;37.756;2023-04-01T07:56:19;23.28;40.42
79016;DHT22;68420;44.714;37.756;2023-04-01T08:02:30;23.28;40.35
79016;DHT22;68420;44.714;37.756;2023-04-01T08:05:22;23.27;40.31
79016;DHT22;68420;44.714;37.756;2023-04-01T08:06:33;23.28;40.31
79016;DHT22;68420;44.714;37.756;2023-04-01T08:10:57;23.40;39.88
79016;DHT22;68420;44.714;37.756;2023-04-01T08:21:36;23.41;39.61